• Join FlightAware (Why Join?)
  • Login
  • US Flag 
06:11AM EDT


 

Airport Tracker/Info


-or-


 

Live Flight TrackerFlight Track Log ✈ SWA1173 ✈ 20-Apr-2012 ✈ KRDU - KPHL

Flight Track Log - Related Links

Times and Time Zones

All times are in EDT time to prevent confusion due to time zone crossing. See the SWA1173 flight status page for this flight to view local times or setup timezone preferences in your user account.

Time Position Orientation Groundspeed Altitude Reporting Facility
EDT Latitude Longitude Course Direction KTS MPH feet Rate Location/Type
10:35AM 35.8583 -78.8058 231° Southwest 152 175 1,100  Level Washington Center
10:36AM 35.8367 -78.8383 302° West 179 206 2,900 2,700 Climbing Washington Center
10:37AM 35.8683 -78.9011 326° Northwest 247 284 5,900 3,060 Climbing Washington Center
10:38AM 35.9661 -78.9822 35° Northeast 297 342 11,000 2,340 Climbing Washington Center
10:39AM 36.0453 -78.9136 37° Northeast 284 327 12,000 1,980 Climbing Washington Center
10:41AM 36.1353 -78.8300 34° Northeast 340 391 15,100 2,520 Climbing Washington Center
10:42AM 36.2292 -78.7514 32° Northeast 393 452 17,200 2,520 Climbing Washington Center
10:42AM 36.3314 -78.6706 33° Northeast 416 479 20,200 2,760 Climbing Washington Center
10:44AM 36.4336 -78.5894 32° Northeast 431 496 22,700 2,520 Climbing Washington Center
10:45AM 36.5400 -78.5056 31° Northeast 443 510 25,400 2,100 Climbing Washington Center
10:46AM 36.6442 -78.4267 35° Northeast 448 516 27,000 1,200 Climbing Washington Center
10:47AM 36.7358 -78.3469 32° Northeast 448 516 27,900 960 Climbing Washington Center
10:47AM 36.8419 -78.2625 32° Northeast 448 516 29,000 540 Climbing Washington Center
10:48AM 36.9567 -78.1728 32° Northeast 448 516 29,000  Level Washington Center
10:50AM 37.0500 -78.1006 33° Northeast 440 506 29,000  Level Washington Center
10:51AM 37.1517 -78.0178 32° Northeast 440 506 29,000  Level Washington Center
10:51AM 37.2556 -77.9350 32° Northeast 440 506 29,000  Level Washington Center
10:52AM 37.3594 -77.8519 33° Northeast 440 506 29,000  Level Washington Center
10:54AM 37.4611 -77.7686 32° Northeast 440 506 29,000  Level Washington Center
10:55AM 37.6706 -77.6014 33° Northeast 440 506 29,000  Level Washington Center
10:57AM 37.7742 -77.5150 32° Northeast 445 512 29,000  Level Washington Center
10:58AM 37.8797 -77.4308 33° Northeast 445 512 29,000  Level Washington Center
10:59AM 37.9811 -77.3464 33° Northeast 445 512 29,000  Level Washington Center
10:59AM 38.0972 -77.2514 34° Northeast 445 512 29,000  Level Washington Center
11:01AM 38.1794 -77.1819 33° Northeast 445 512 29,000  Level Washington Center
11:02AM 38.3058 -77.0786 32° Northeast 445 512 29,000  Level Washington Center
11:02AM 38.4111 -76.9933 34° Northeast 445 512 29,000 -360 Level Washington Center
11:04AM 38.5142 -76.9050 33° Northeast 445 512 28,300 -1,440 Descending Washington Center
11:05AM 38.6131 -76.8219 37° Northeast 440 506 26,100 -2,160 Descending Washington Center
11:06AM 38.7058 -76.7328 72° East 435 501 24,000 -1,080 Descending Washington Center
11:07AM 38.7403 -76.5950 75° East 399 459 24,000 -1,080 Level Washington Center
11:07AM 38.7686 -76.4542 75° East 390 449 21,900 -2,160 Descending Washington Center
11:09AM 38.7964 -76.3189 75° East 390 449 19,800 -2,040 Descending Washington Center
11:10AM 38.8242 -76.1886 77° East 390 449 17,800 -2,100 Descending Washington Center
11:11AM 38.8456 -76.0661 75° East 390 449 15,600 -1,500 Descending Washington Center
11:11AM 38.8711 -75.9408 69° East 372 428 14,900 -780 Descending Washington Center
11:13AM 38.9047 -75.8264 35° Northeast 357 411 14,100 -900 Descending Washington Center
11:14AM 38.9842 -75.7544 23° Northeast 331 381 13,100 -1,020 Descending Washington Center
11:15AM 39.1344 -75.6703 North 349 402 11,400 -1,080 Descending FAA TRACON SMA TRACON (SMA)
11:16AM 39.2003 -75.6617 North 341 392 10,700 -1,080 Descending FAA TRACON SMA TRACON (SMA)
11:17AM 39.2631 -75.6550 North 323 372 10,000 -540 Descending FAA TRACON SMA TRACON (SMA)
11:17AM 39.3142 -75.6486 27° Northeast 302 348 10,000 -540 Level FAA TRACON SMA TRACON (SMA)
11:18AM 39.3628 -75.6172 48° Northeast 292 336 9,300 -1,380 Descending FAA TRACON SMA TRACON (SMA)
11:19AM 39.4006 -75.5636 46° Northeast 295 339 8,200 -1,500 Descending FAA TRACON SMA TRACON (SMA)
11:19AM 39.4361 -75.5164 46° Northeast 293 337 7,300 -1,320 Descending FAA TRACON SMA TRACON (SMA)
11:20AM 39.4744 -75.4653 46° Northeast 287 330 6,500 -1,020 Descending FAA TRACON SMA TRACON (SMA)
11:21AM 39.5111 -75.4153 46° Northeast 279 321 6,000 -1,020 Descending FAA TRACON SMA TRACON (SMA)
11:21AM 39.5439 -75.3714 46° Northeast 277 319 5,200 -1,380 Descending FAA TRACON SMA TRACON (SMA)
11:22AM 39.5811 -75.3222 37° Northeast 277 319 4,200 -1,320 Descending FAA TRACON SMA TRACON (SMA)
11:23AM 39.6231 -75.2811 25° Northeast 285 328 3,500 -900 Descending FAA TRACON SMA TRACON (SMA)
11:23AM 39.6636 -75.2564 25° Northeast 261 300 3,000 -900 Descending FAA TRACON SMA TRACON (SMA)
11:24AM 39.7061 -75.2306 26° Northeast 253 291 2,300 -780 Descending FAA TRACON SMA TRACON (SMA)
11:25AM 39.7478 -75.2036 26° Northeast 228 262 2,000 -480 Descending FAA TRACON SMA TRACON (SMA)